Summit, Washington
Current Conditions -  °F | °C
As of 2:58 PM on Tuesday 21 Oct 2014 (Local Time) from KTCM Reporting Station
Broken Clouds Broken Clouds  
Wind Chill: 62°   Ceiling: 9000
Heat Index: 62°   Visibility: 10mi
Dew Point: 49°   Wind: 16mph
Humidity: 63%   Direction: 200°SSW
Pressure: 29.91"   Gusts: 28mph
Location:  47.1905°N, 122.328°W
Report Text: KTCM 212158Z AUTO 20014G24KT 10SM FEW036 SCT080 BKN090 17/10 A2991 RMK AO2 SLP132 T01690097 $
Loading
Personal Weather Stations






























Interactive Weather Map
Tropical Storm Tracking
New forecast layout! Learn more

10-Day Weather Forecast

Advertisements
Track Severe Weather on mobile